Time;durP1;ratioP1;P1;durP2;ratioP2;P2;SDS_P1;SDS_P2;PMS_P1;PMS_P2;Temp;Humidity;BMP_temperature;BMP_pressure;BME280_temperature;BME280_humidity;BME280_pressure;Samples;Min_cycle;Max_cycle;Signal;HPM_P1;HPM_P2
2023/05/09 00:01:57;;;;;;;;;4.67;4.67;;;;;18.28;64.43;101022.88;4955680;28;45447;-59
2023/05/09 00:04:23;;;;;;;;;4.00;4.00;;;;;18.23;64.40;101014.31;4957923;28;46536;-59
2023/05/09 00:06:49;;;;;;;;;6.67;6.67;;;;;18.25;64.74;101026.56;4958523;28;45426;-59
2023/05/09 00:09:14;;;;;;;;;5.67;5.67;;;;;18.22;64.47;101023.25;4959527;28;45490;-60
2023/05/09 00:11:40;;;;;;;;;4.00;4.00;;;;;18.22;64.10;101013.47;4959519;28;45358;-59
2023/05/09 00:14:05;;;;;;;;;6.67;6.67;;;;;18.24;64.39;101016.00;4958330;28;47103;-59
2023/05/09 00:16:31;;;;;;;;;5.00;5.00;;;;;18.24;64.32;101002.69;4958261;28;45603;-59
2023/05/09 00:18:57;;;;;;;;;3.00;3.00;;;;;18.23;64.08;101003.66;4960058;28;45490;-59
2023/05/09 00:21:22;;;;;;;;;7.67;6.00;;;;;18.20;64.03;100991.38;4958868;28;45401;-59
2023/05/09 00:23:48;;;;;;;;;5.33;5.33;;;;;18.21;64.29;100993.09;4957943;28;53233;-59
2023/05/09 00:26:15;;;;;;;;;6.67;6.67;;;;;18.18;63.88;100982.63;4959271;28;45383;-59
2023/05/09 00:28:40;;;;;;;;;6.00;6.00;;;;;18.19;63.55;100980.81;4959206;28;45375;-59
2023/05/09 00:31:05;;;;;;;;;5.67;5.67;;;;;18.19;63.13;100980.81;4958963;28;53666;-59
2023/05/09 00:33:31;;;;;;;;;6.00;5.00;;;;;18.15;63.16;100971.31;4959108;28;45589;-59
2023/05/09 00:35:56;;;;;;;;;3.00;3.00;;;;;18.14;62.58;100973.13;4958060;28;45412;-59
2023/05/09 00:38:22;;;;;;;;;3.00;3.00;;;;;18.11;62.67;100973.31;4959270;28;45447;-60
2023/05/09 00:40:48;;;;;;;;;4.00;4.00;;;;;18.12;62.85;100979.50;4959159;28;45559;-59
2023/05/09 00:43:13;;;;;;;;;5.67;4.33;;;;;18.12;62.82;100974.19;4958041;28;45996;-59
2023/05/09 00:45:38;;;;;;;;;5.00;5.00;;;;;18.10;62.81;100967.13;4958576;28;45580;-60
2023/05/09 00:48:04;;;;;;;;;5.00;5.00;;;;;18.10;62.89;100964.47;4958010;28;45463;-60
2023/05/09 00:50:30;;;;;;;;;4.33;4.00;;;;;18.06;62.85;100959.44;4959036;28;45585;-59
2023/05/09 00:52:56;;;;;;;;;4.67;4.67;;;;;18.10;62.54;100960.94;4958811;28;46244;-60
2023/05/09 00:55:22;;;;;;;;;5.00;5.00;;;;;18.08;62.65;100958.41;4957894;28;45394;-60
2023/05/09 00:57:47;;;;;;;;;4.00;4.00;;;;;18.05;62.91;100953.25;4958654;28;45360;-59
2023/05/09 01:00:13;;;;;;;;;4.67;4.67;;;;;18.09;62.60;100948.59;4956983;28;45466;-60
2023/05/09 01:02:52;;;;;;;;;4.33;4.33;;;;;18.08;62.20;100949.53;4958550;28;46180;-59
2023/05/09 01:05:18;;;;;;;;;5.00;5.00;;;;;18.03;62.38;100935.69;4958007;28;45539;-60
2023/05/09 01:08:16;;;;;;;;;4.33;4.00;;;;;18.03;62.10;100936.53;4958782;28;45446;-60
2023/05/09 01:10:57;;;;;;;;;5.00;5.00;;;;;18.04;62.30;100940.88;4946184;28;45519;-59
2023/05/09 01:13:39;;;;;;;;;4.67;4.67;;;;;18.03;62.00;100944.50;4958473;28;45947;-59
2023/05/09 01:16:37;;;;;;;;;2.67;2.67;;;;;18.02;61.80;100929.47;4957658;28;45453;-59
2023/05/09 01:19:22;;;;;;;;;4.00;4.00;;;;;18.00;61.78;100930.50;4959130;28;45403;-59
2023/05/09 01:21:49;;;;;;;;;6.00;3.67;;;;;17.96;61.38;100926.34;4958236;28;45500;-59
2023/05/09 01:24:46;;;;;;;;;3.00;3.00;;;;;17.93;61.37;100927.38;4958347;28;45537;-59
2023/05/09 01:27:36;;;;;;;;;5.00;4.00;;;;;17.94;61.79;100922.91;4958279;28;45463;-59
2023/05/09 01:30:03;;;;;;;;;3.33;3.00;;;;;17.94;61.58;100913.13;4957302;28;45443;-59
2023/05/09 01:32:31;;;;;;;;;3.33;3.33;;;;;17.91;61.54;100907.13;4958188;28;45464;-59
2023/05/09 01:35:01;;;;;;;;;3.00;3.00;;;;;17.92;61.79;100904.41;4957462;28;45378;-60
2023/05/09 01:37:33;;;;;;;;;2.00;2.00;;;;;17.92;62.04;100901.72;4957814;28;45363;-59
2023/05/09 01:40:05;;;;;;;;;4.00;3.33;;;;;17.90;61.94;100906.28;4958471;28;45425;-59
2023/05/09 01:42:41;;;;;;;;;3.67;3.67;;;;;17.89;61.81;100901.91;4958263;28;45486;-59
2023/05/09 01:45:08;;;;;;;;;7.00;4.67;;;;;17.85;61.98;100890.59;4956677;28;46061;-59
2023/05/09 01:47:35;;;;;;;;;3.33;3.33;;;;;17.80;62.44;100886.50;4958054;28;45391;-59
2023/05/09 01:50:03;;;;;;;;;3.67;3.67;;;;;17.85;61.84;100898.56;4957258;28;45462;-59
2023/05/09 01:52:29;;;;;;;;;5.00;5.00;;;;;17.83;61.94;100883.66;4957675;28;45515;-59
2023/05/09 01:54:55;;;;;;;;;3.33;3.33;;;;;17.82;61.94;100889.94;4957087;28;46179;-59
2023/05/09 01:57:22;;;;;;;;;3.33;3.33;;;;;17.81;62.35;100883.75;4958098;28;45519;-59
2023/05/09 01:59:48;;;;;;;;;6.00;4.00;;;;;17.85;61.91;100892.41;4957886;28;45475;-59
2023/05/09 02:02:13;;;;;;;;;4.67;4.67;;;;;17.84;62.25;100888.91;4957251;28;45542;-59
2023/05/09 02:04:42;;;;;;;;;4.00;4.00;;;;;17.82;62.08;100881.94;4957727;28;45434;-59
2023/05/09 02:07:09;;;;;;;;;3.33;3.33;;;;;17.85;62.57;100890.59;4957961;28;45518;-59
2023/05/09 02:09:35;;;;;;;;;4.00;4.00;;;;;17.84;62.19;100885.38;4955683;28;45407;-59
2023/05/09 02:12:00;;;;;;;;;4.67;4.67;;;;;17.87;62.16;100885.19;4956471;28;45564;-61
2023/05/09 02:14:26;;;;;;;;;2.33;2.33;;;;;17.87;62.21;100879.88;4957794;28;46117;-59
2023/05/09 02:16:51;;;;;;;;;3.67;3.67;;;;;17.86;62.00;100878.13;4957771;28;45601;-59
2023/05/09 02:19:16;;;;;;;;;5.67;4.33;;;;;17.86;62.24;100884.31;4956464;28;45637;-59
2023/05/09 02:21:42;;;;;;;;;5.00;4.00;;;;;17.81;62.27;100869.56;4956615;28;45565;-59
2023/05/09 02:24:08;;;;;;;;;3.67;3.67;;;;;17.79;62.68;100877.66;4957198;28;46040;-59
2023/05/09 02:26:34;;;;;;;;;3.00;3.00;;;;;17.79;62.42;100880.34;4957538;28;45443;-60
2023/05/09 02:29:02;;;;;;;;;4.00;4.00;;;;;17.80;62.24;100874.06;4957361;28;45479;-59
2023/05/09 02:31:29;;;;;;;;;5.33;5.33;;;;;17.80;62.28;100878.53;4956479;28;45546;-59
2023/05/09 02:33:55;;;;;;;;;2.33;2.33;;;;;17.76;62.43;100875.19;4956151;28;45449;-59
2023/05/09 02:36:22;;;;;;;;;5.00;5.00;;;;;17.73;62.62;100871.81;4956345;28;45483;-59
2023/05/09 02:38:48;;;;;;;;;4.67;4.67;;;;;17.75;62.63;100870.78;4957522;28;45415;-60
2023/05/09 02:41:14;;;;;;;;;3.67;3.67;;;;;17.75;62.93;100870.78;4957644;28;45477;-60
2023/05/09 02:43:40;;;;;;;;;4.67;4.67;;;;;17.75;62.68;100867.28;4956500;28;45374;-60
2023/05/09 02:46:06;;;;;;;;;4.33;4.33;;;;;17.72;62.57;100860.31;4957052;28;45369;-60
2023/05/09 02:48:31;;;;;;;;;4.33;4.33;;;;;17.70;63.06;100867.53;4957466;28;45478;-60
2023/05/09 02:50:57;;;;;;;;;7.33;4.67;;;;;17.70;62.91;100864.88;4956291;28;45432;-60
2023/05/09 02:53:22;;;;;;;;;3.00;3.00;;;;;17.69;63.12;100865.00;4949157;28;45936;-60
2023/05/09 02:55:48;;;;;;;;;4.00;4.00;;;;;17.67;63.38;100865.06;4954942;28;45887;-60
2023/05/09 02:58:13;;;;;;;;;8.00;5.00;;;;;17.63;63.53;100863.56;4957092;28;45398;-60
2023/05/09 03:00:38;;;;;;;;;4.33;4.33;;;;;17.65;63.61;100861.66;4957164;28;45529;-60
2023/05/09 03:03:04;;;;;;;;;5.33;5.33;;;;;17.66;63.92;100855.41;4957005;28;47928;-60
2023/05/09 03:05:29;;;;;;;;;3.33;3.00;;;;;17.63;63.93;100850.25;4955883;28;45428;-60
2023/05/09 03:07:55;;;;;;;;;6.00;6.00;;;;;17.63;63.96;100853.78;4957291;28;45457;-60
2023/05/09 03:10:20;;;;;;;;;6.00;5.00;;;;;17.63;64.06;100853.78;4956924;28;45454;-60
2023/05/09 03:12:45;;;;;;;;;5.67;5.67;;;;;17.62;64.14;100852.06;4954663;28;45620;-60
2023/05/09 03:15:10;;;;;;;;;5.67;5.67;;;;;17.65;64.29;100854.53;4957067;28;45467;-60
2023/05/09 03:17:36;;;;;;;;;4.00;4.00;;;;;17.62;64.02;100856.50;4956231;28;45673;-60
2023/05/09 03:20:04;;;;;;;;;5.00;5.00;;;;;17.64;64.32;100851.97;4957104;28;45510;-60
2023/05/09 03:22:29;;;;;;;;;4.00;4.00;;;;;17.64;64.66;100851.97;4955153;28;47097;-60
2023/05/09 03:24:55;;;;;;;;;4.33;4.33;;;;;17.62;64.63;100843.22;4956731;28;45333;-60
2023/05/09 03:27:20;;;;;;;;;4.67;3.67;;;;;17.63;64.27;100844.94;4955988;28;45360;-60
2023/05/09 03:29:45;;;;;;;;;5.00;5.00;;;;;17.63;64.31;100848.44;4956339;28;50865;-60
2023/05/09 03:32:11;;;;;;;;;4.00;4.00;;;;;17.63;64.73;100851.13;4955624;28;46515;-60
2023/05/09 03:34:36;;;;;;;;;4.33;4.33;;;;;17.62;64.43;100843.22;4956511;28;45379;-60
2023/05/09 03:37:01;;;;;;;;;5.33;4.00;;;;;17.58;64.67;100839.91;4957014;28;45418;-60
2023/05/09 03:39:26;;;;;;;;;6.00;5.33;;;;;17.57;64.79;100846.19;4955818;28;45574;-60
2023/05/09 03:41:52;;;;;;;;;4.00;4.00;;;;;17.55;63.84;100832.09;4955829;28;66916;-60
2023/05/09 03:44:17;;;;;;;;;5.00;5.00;;;;;17.45;63.96;100837.13;4955053;28;49524;-60
2023/05/09 03:46:42;;;;;;;;;4.00;2.67;;;;;17.38;64.20;100818.97;4955142;28;45840;-60
2023/05/09 03:49:08;;;;;;;;;4.67;4.00;;;;;17.41;64.31;100827.63;4954396;28;45642;-60
2023/05/09 03:51:33;;;;;;;;;3.67;3.00;;;;;17.41;63.84;100829.44;4955030;28;51816;-60
2023/05/09 03:53:58;;;;;;;;;3.33;3.33;;;;;17.35;63.13;100832.44;4955345;28;45529;-60
2023/05/09 03:56:24;;;;;;;;;3.67;3.67;;;;;17.28;63.05;100823.16;4956387;28;45471;-60
2023/05/09 03:58:50;;;;;;;;;3.00;3.00;;;;;17.27;63.11;100826.72;4955360;28;45461;-60
2023/05/09 04:01:15;;;;;;;;;4.33;4.33;;;;;17.23;62.61;100826.91;4956054;28;45508;-60
2023/05/09 04:03:41;;;;;;;;;2.67;2.67;;;;;17.20;62.44;100821.78;4956386;28;45596;-60
2023/05/09 04:06:06;;;;;;;;;3.00;3.00;;;;;17.21;62.94;100817.31;4956507;28;45517;-60
2023/05/09 04:08:32;;;;;;;;;2.67;2.67;;;;;17.19;62.48;100819.22;4955134;28;45546;-60
2023/05/09 04:10:57;;;;;;;;;4.00;3.67;;;;;17.14;63.53;100816.84;4954105;28;46306;-60
2023/05/09 04:13:22;;;;;;;;;3.00;3.00;;;;;17.15;63.53;100812.38;4955933;28;47092;-60
2023/05/09 04:15:48;;;;;;;;;3.67;3.67;;;;;17.10;63.35;100803.81;4956600;28;45536;-60
2023/05/09 04:18:13;;;;;;;;;3.33;3.33;;;;;17.14;63.56;100811.53;4957004;28;45447;-60
2023/05/09 04:20:39;;;;;;;;;0.67;0.67;;;;;17.05;62.66;100801.44;4954715;28;45715;-59
2023/05/09 04:23:04;;;;;;;;;0.67;0.67;;;;;17.08;62.15;100808.38;4956038;28;45470;-60
2023/05/09 04:25:30;;;;;;;;;2.67;0.67;;;;;17.04;60.50;100810.34;4955904;28;45475;-60
2023/05/09 04:27:56;;;;;;;;;0.33;0.33;;;;;16.97;59.49;100804.53;4956208;28;45599;-60
2023/05/09 04:30:21;;;;;;;;;1.67;1.67;;;;;16.87;58.96;100798.06;4955979;28;47131;-60
2023/05/09 04:32:47;;;;;;;;;1.00;1.00;;;;;16.86;59.36;100795.50;4954065;28;45446;-60
2023/05/09 04:35:13;;;;;;;;;1.67;1.67;;;;;16.80;59.43;100796.72;4952002;28;45439;-60
2023/05/09 04:37:39;;;;;;;;;2.00;2.00;;;;;16.77;59.49;100787.13;4959118;28;45459;-60
2023/05/09 04:40:05;;;;;;;;;2.00;0.00;;;;;16.72;59.43;100783.84;4959159;28;45953;-60
2023/05/09 04:42:33;;;;;;;;;0.67;0.67;;;;;16.72;59.35;100780.31;4958002;28;45444;-59
2023/05/09 04:44:59;;;;;;;;;1.67;1.67;;;;;16.68;59.10;100773.47;4959381;28;45419;-59
2023/05/09 04:47:25;;;;;;;;;2.33;0.00;;;;;16.64;59.07;100777.25;4957781;28;45495;-60
2023/05/09 04:49:50;;;;;;;;;1.33;1.33;;;;;16.63;59.19;100780.84;4958912;28;45567;-60
2023/05/09 04:52:15;;;;;;;;;1.67;1.67;;;;;16.61;59.86;100772.13;4959077;28;45338;-59
2023/05/09 04:54:41;;;;;;;;;2.00;2.00;;;;;16.63;60.24;100779.06;4957884;28;45503;-60
2023/05/09 04:57:06;;;;;;;;;0.67;0.67;;;;;16.65;59.94;100773.66;4958916;28;45710;-59
2023/05/09 04:59:31;;;;;;;;;0.67;0.67;;;;;16.66;60.41;100767.41;4957766;28;46136;-60
2023/05/09 05:01:57;;;;;;;;;1.00;1.00;;;;;16.68;60.83;100762.84;4957744;28;45369;-62
2023/05/09 05:04:22;;;;;;;;;1.67;1.67;;;;;16.67;61.23;100764.66;4958826;28;45509;-60
2023/05/09 05:06:47;;;;;;;;;1.00;1.00;;;;;16.67;61.32;100761.16;4958992;28;45356;-59
2023/05/09 05:09:13;;;;;;;;;2.33;1.67;;;;;16.65;61.60;100757.72;4958782;28;46024;-60
2023/05/09 05:11:38;;;;;;;;;0.33;0.33;;;;;16.63;61.73;100751.63;4957303;28;45478;-60
2023/05/09 05:14:03;;;;;;;;;0.67;0.67;;;;;16.64;61.93;100753.38;4958564;28;47300;-60
2023/05/09 05:16:29;;;;;;;;;1.67;1.67;;;;;16.64;62.42;100758.69;4958636;28;45602;-59
2023/05/09 05:18:54;;;;;;;;;2.33;2.33;;;;;16.62;61.49;100747.28;4956865;28;45930;-60
2023/05/09 05:21:19;;;;;;;;;1.00;1.00;;;;;16.58;61.72;100749.25;4958118;28;45539;-59
2023/05/09 05:23:45;;;;;;;;;1.00;1.00;;;;;16.54;62.22;100751.22;4973555;28;45415;-60
2023/05/09 05:26:10;;;;;;;;;1.33;1.33;;;;;16.52;61.98;100742.50;4958150;28;55905;-60
2023/05/09 05:28:35;;;;;;;;;2.00;2.00;;;;;16.54;61.81;100740.59;4958090;28;45426;-60
2023/05/09 05:31:01;;;;;;;;;2.33;2.33;;;;;16.51;61.99;100732.81;4948175;28;45467;-60
2023/05/09 05:33:26;;;;;;;;;2.00;1.00;;;;;16.47;62.98;100736.63;4958663;28;45571;-60
2023/05/09 05:35:51;;;;;;;;;3.00;1.67;;;;;16.48;63.47;100729.50;4955496;28;45569;-59
2023/05/09 05:38:16;;;;;;;;;1.00;1.00;;;;;16.49;63.51;100732.03;4956666;28;46220;-58
2023/05/09 05:40:42;;;;;;;;;1.67;1.67;;;;;16.44;63.50;100728.81;4955719;28;67610;-59
2023/05/09 05:43:07;;;;;;;;;3.67;2.33;;;;;16.33;63.87;100728.56;4957238;28;49846;-59
2023/05/09 05:45:32;;;;;;;;;2.00;2.00;;;;;16.37;63.41;100734.56;4955038;28;45605;-59
2023/05/09 05:47:58;;;;;;;;;2.00;2.00;;;;;16.36;63.50;100733.69;4956711;28;45933;-58
2023/05/09 05:50:23;;;;;;;;;3.00;3.00;;;;;16.31;62.82;100736.63;4956672;28;45516;-67
2023/05/09 05:52:48;;;;;;;;;2.33;2.00;;;;;16.33;63.26;100724.13;4957110;28;52769;-67
2023/05/09 05:55:14;;;;;;;;;2.00;2.00;;;;;16.33;62.98;100732.09;4955324;28;45703;-65
2023/05/09 05:57:39;;;;;;;;;1.00;0.67;;;;;16.28;62.86;100720.88;4957496;28;45411;-61
2023/05/09 06:00:10;;;;;;;;;1.67;1.67;;;;;16.29;62.19;100725.25;4957334;28;45388;-59
2023/05/09 06:02:36;;;;;;;;;0.67;0.67;;;;;16.25;62.25;100714.88;4955701;28;45493;-62
2023/05/09 06:05:03;;;;;;;;;0.00;0.00;;;;;16.28;62.11;100726.19;4955853;28;45621;-63
2023/05/09 06:07:28;;;;;;;;;0.00;0.00;;;;;16.26;61.89;100716.59;4955718;28;45620;-60
2023/05/09 06:09:53;;;;;;;;;1.00;1.00;;;;;16.24;62.67;100713.19;4956736;28;45477;-59
2023/05/09 06:12:19;;;;;;;;;1.00;1.00;;;;;16.24;62.28;100714.03;4956523;28;45490;-58
2023/05/09 06:14:44;;;;;;;;;2.33;2.33;;;;;16.18;62.05;100698.47;4957698;28;45577;-58
2023/05/09 06:17:10;;;;;;;;;2.00;0.33;;;;;16.12;61.92;100698.81;4956660;28;63847;-58
2023/05/09 06:19:36;;;;;;;;;0.67;0.67;;;;;16.06;61.95;100704.44;4955432;28;45515;-54
2023/05/09 06:22:01;;;;;;;;;1.67;1.67;;;;;15.97;62.00;100697.88;4956653;28;45469;-60
2023/05/09 06:24:26;;;;;;;;;0.67;0.67;;;;;16.01;62.13;100696.78;4957773;28;45324;-66
2023/05/09 06:26:52;;;;;;;;;1.00;1.00;;;;;16.02;62.12;100695.81;4957395;28;45382;-66
2023/05/09 06:29:17;;;;;;;;;1.67;1.67;;;;;16.01;62.45;100691.47;4957186;28;45496;-66
2023/05/09 06:31:42;;;;;;;;;1.67;1.67;;;;;15.97;62.60;100683.75;4957251;28;45400;-63
2023/05/09 06:34:08;;;;;;;;;1.33;1.33;;;;;15.87;62.95;100678.13;4956690;28;46952;-63
2023/05/09 06:36:33;;;;;;;;;1.00;1.00;;;;;15.86;63.55;100677.25;4956348;28;46210;-62
2023/05/09 06:38:59;;;;;;;;;1.00;1.00;;;;;15.82;63.19;100672.22;4955715;28;45483;-63
2023/05/09 06:41:25;;;;;;;;;1.00;1.00;;;;;15.84;63.45;100675.63;4956880;28;45486;-62
2023/05/09 06:43:51;;;;;;;;;1.00;1.00;;;;;15.83;63.46;100672.13;4956884;28;45386;-61
2023/05/09 06:46:16;;;;;;;;;2.00;2.00;;;;;15.82;63.93;100672.22;4955861;28;45498;-61
2023/05/09 06:48:41;;;;;;;;;1.67;1.67;;;;;15.81;63.29;100671.34;4956484;28;45383;-61
2023/05/09 06:51:07;;;;;;;;;2.00;1.00;;;;;15.85;63.16;100674.69;4956751;28;45466;-59
2023/05/09 06:53:32;;;;;;;;;2.00;1.00;;;;;15.84;63.46;100673.84;4956271;28;45588;-58
2023/05/09 06:55:58;;;;;;;;;2.00;2.00;;;;;15.83;63.72;100663.31;4955059;28;46149;-64
2023/05/09 06:58:23;;;;;;;;;1.00;1.00;;;;;15.74;64.09;100656.72;4954852;28;45586;-60
2023/05/09 07:00:50;;;;;;;;;1.00;1.00;;;;;15.75;63.67;100653.16;4956397;28;45448;-62
2023/05/09 07:03:15;;;;;;;;;1.67;1.67;;;;;15.72;64.24;100655.13;4956257;28;45449;-62
2023/05/09 07:05:41;;;;;;;;;2.00;2.00;;;;;15.74;63.44;100650.56;4956903;28;45898;-59
2023/05/09 07:08:06;;;;;;;;;2.33;2.33;;;;;15.67;64.24;100648.22;4954109;28;51266;-60
2023/05/09 07:10:31;;;;;;;;;2.00;2.00;;;;;15.68;64.98;100638.47;4956464;28;45507;-60
2023/05/09 07:12:57;;;;;;;;;2.00;2.00;;;;;15.67;64.06;100645.59;4955423;28;45540;-63
2023/05/09 07:15:22;;;;;;;;;2.00;2.00;;;;;15.66;64.65;100633.28;4956588;28;45566;-64
2023/05/09 07:17:48;;;;;;;;;3.00;3.00;;;;;15.63;65.03;100627.28;4954657;28;45493;-60
2023/05/09 07:20:13;;;;;;;;;3.00;3.00;;;;;15.57;65.62;100617.03;4956030;28;45446;-63
2023/05/09 07:22:38;;;;;;;;;2.00;2.00;;;;;15.59;64.93;100620.44;4955498;28;45858;-62
2023/05/09 07:25:06;;;;;;;;;3.00;3.00;;;;;15.59;64.96;100623.94;4955636;28;46220;-60
2023/05/09 07:27:31;;;;;;;;;2.67;2.00;;;;;15.58;65.63;100614.28;4956001;28;45488;-63
2023/05/09 07:29:57;;;;;;;;;1.67;1.67;;;;;15.60;65.42;100615.03;4955418;28;45493;-60
2023/05/09 07:32:22;;;;;;;;;3.00;2.00;;;;;15.61;65.90;100613.28;4955384;28;55427;-62
2023/05/09 07:34:47;;;;;;;;;1.00;1.00;;;;;15.59;65.60;100604.53;4956181;28;45904;-58
2023/05/09 07:37:12;;;;;;;;;1.33;1.33;;;;;15.51;65.14;100590.88;4954540;28;55702;-62
2023/05/09 07:39:38;;;;;;;;;2.00;2.00;;;;;15.61;65.51;100603.50;4955447;28;45419;-64
2023/05/09 07:42:04;;;;;;;;;0.33;0.33;;;;;15.58;65.05;100598.38;4956153;28;45508;-63
2023/05/09 07:44:30;;;;;;;;;2.00;2.00;;;;;15.56;65.14;100591.47;4956096;28;46090;-63
2023/05/09 07:46:57;;;;;;;;;2.00;2.00;;;;;15.46;65.40;100572.56;4955881;28;45367;-67
2023/05/09 07:49:23;;;;;;;;;2.00;2.00;;;;;15.55;66.11;100581.78;4955913;28;45467;-62
2023/05/09 07:51:48;;;;;;;;;2.67;2.67;;;;;15.65;66.54;100590.94;4953886;28;45547;-52
2023/05/09 07:54:14;;;;;;;;;2.00;2.00;;;;;15.70;66.70;100588.06;4954407;28;45525;-64
2023/05/09 07:56:39;;;;;;;;;2.33;2.33;;;;;15.64;66.30;100579.47;4955958;28;45510;-68
2023/05/09 07:59:04;;;;;;;;;5.67;2.33;;;;;15.61;67.42;100592.06;4955286;28;45459;-62
2023/05/09 08:01:30;;;;;;;;;2.00;2.00;;;;;15.63;66.80;100590.16;4955671;28;45482;-64
2023/05/09 08:03:55;;;;;;;;;2.00;2.00;;;;;15.73;67.17;100587.88;4956694;28;45673;-57
2023/05/09 08:06:20;;;;;;;;;2.00;2.00;;;;;15.72;67.32;100583.53;4955873;28;45387;-61
2023/05/09 08:08:46;;;;;;;;;2.67;2.67;;;;;15.70;67.76;100586.25;4951014;28;45393;-64
2023/05/09 08:11:11;;;;;;;;;3.00;3.00;;;;;15.71;67.13;100576.50;4959746;28;45457;-62
2023/05/09 08:13:37;;;;;;;;;6.00;4.00;;;;;15.77;67.64;100582.31;4957260;28;45945;-63
2023/05/09 08:16:02;;;;;;;;;3.00;3.00;;;;;15.79;67.73;100575.09;4957509;28;45547;-62
2023/05/09 08:18:27;;;;;;;;;5.67;4.00;;;;;15.80;67.32;100578.66;4957346;28;45403;-63
2023/05/09 08:20:53;;;;;;;;;4.33;3.00;;;;;15.76;68.01;100571.78;4955441;28;59737;-62
2023/05/09 08:23:18;;;;;;;;;4.67;4.67;;;;;15.73;67.98;100572.81;4959064;28;46607;-62
2023/05/09 08:25:43;;;;;;;;;3.67;3.67;;;;;15.79;67.83;100569.81;4957646;28;45427;-66
2023/05/09 08:28:09;;;;;;;;;3.33;3.33;;;;;15.77;68.12;100562.88;4959072;28;45634;-58
2023/05/09 08:30:35;;;;;;;;;3.67;3.00;;;;;15.71;69.12;100556.13;4959217;28;45594;-64
2023/05/09 08:33:00;;;;;;;;;3.67;3.67;;;;;15.77;69.04;100552.28;4958753;28;45991;-69
2023/05/09 08:35:26;;;;;;;;;4.00;4.00;;;;;15.78;68.54;100552.19;4959047;28;45508;-64
2023/05/09 08:37:51;;;;;;;;;2.33;2.33;;;;;15.79;68.73;100553.91;4958738;28;45348;-63
2023/05/09 08:40:17;;;;;;;;;3.33;3.33;;;;;15.82;68.73;100547.56;4959301;28;45617;-68
2023/05/09 08:42:44;;;;;;;;;3.33;3.33;;;;;15.86;69.18;100547.31;4957762;28;45506;-58
2023/05/09 08:45:13;;;;;;;;;4.00;4.00;;;;;15.89;68.65;100546.28;4959012;28;45557;-57
2023/05/09 08:47:40;;;;;;;;;4.33;3.00;;;;;15.89;69.51;100554.22;4958769;28;45434;-61
2023/05/09 08:50:07;;;;;;;;;4.67;4.67;;;;;15.91;69.56;100539.09;4958173;28;45372;-62
2023/05/09 08:52:33;;;;;;;;;5.33;5.33;;;;;15.93;69.23;100542.47;4971693;28;45824;-65
2023/05/09 08:54:59;;;;;;;;;4.33;4.33;;;;;15.94;69.68;100538.06;4952711;28;45368;-67
2023/05/09 08:57:26;;;;;;;;;3.67;3.67;;;;;15.92;69.68;100531.97;4951333;28;45492;-62
2023/05/09 08:59:52;;;;;;;;;2.67;2.67;;;;;15.91;70.34;100533.78;4958388;28;45523;-60
2023/05/09 09:02:18;;;;;;;;;4.33;4.33;;;;;15.92;69.82;100519.56;4958206;28;46572;-67
2023/05/09 09:04:44;;;;;;;;;6.33;5.33;;;;;15.97;69.89;100525.47;4958439;28;45463;-66
2023/05/09 09:07:10;;;;;;;;;7.00;4.33;;;;;15.98;70.72;100526.31;4958412;28;45324;-61
2023/05/09 09:09:36;;;;;;;;;7.33;6.67;;;;;15.96;69.66;100513.16;4957160;28;45468;-65
2023/05/09 09:12:06;;;;;;;;;10.00;10.00;;;;;15.98;70.27;100511.22;4955684;28;46079;-60
2023/05/09 09:14:37;;;;;;;;;5.00;5.00;;;;;16.02;70.51;100519.88;4956400;28;45511;-59
2023/05/09 09:17:05;;;;;;;;;5.00;5.00;;;;;15.95;70.43;100499.97;4954599;28;45427;-60
2023/05/09 09:19:34;;;;;;;;;3.00;3.00;;;;;15.99;70.65;100509.47;4956415;28;45535;-60
2023/05/09 09:22:03;;;;;;;;;6.00;6.00;;;;;15.98;70.63;100502.44;4954914;28;46135;-60
2023/05/09 09:24:29;;;;;;;;;5.67;5.67;;;;;15.98;70.67;100500.63;4956032;28;45418;-59
2023/05/09 09:26:55;;;;;;;;;6.33;6.00;;;;;15.96;70.21;100499.88;4956823;28;45533;-68
2023/05/09 09:29:21;;;;;;;;;11.33;8.67;;;;;15.94;70.52;100503.56;4955149;28;45474;-60
2023/05/09 09:31:52;;;;;;;;;3.33;3.33;;;;;15.88;69.24;100499.50;4956799;28;46719;-61
2023/05/09 09:34:21;;;;;;;;;1.67;1.67;;;;;15.82;69.64;100508.63;4957386;28;45437;-63
2023/05/09 09:36:47;;;;;;;;;1.67;1.67;;;;;15.78;70.06;100499.16;4958152;28;45547;-65
2023/05/09 09:39:13;;;;;;;;;1.67;1.67;;;;;15.82;70.31;100505.97;4958086;28;45581;-66
2023/05/09 09:41:39;;;;;;;;;1.67;1.67;;;;;15.83;70.05;100504.22;4957854;28;46209;-63
2023/05/09 09:44:12;;;;;;;;;3.67;2.00;;;;;15.86;69.78;100501.38;4956445;28;45483;-63
2023/05/09 09:46:41;;;;;;;;;0.67;0.67;;;;;15.87;69.70;100503.91;4957936;28;45527;-66
2023/05/09 09:49:11;;;;;;;;;1.67;1.67;;;;;15.87;70.28;100498.59;4956955;28;45485;-64
2023/05/09 09:51:37;;;;;;;;;0.67;0.67;;;;;15.91;69.89;100494.00;4958046;28;45491;-66
2023/05/09 09:54:03;;;;;;;;;2.67;2.67;;;;;15.88;70.44;100500.34;4956236;28;45578;-62
2023/05/09 09:56:42;;;;;;;;;2.33;1.67;;;;;15.89;70.90;100495.88;4957688;28;45515;-63
2023/05/09 09:59:12;;;;;;;;;3.00;3.00;;;;;15.86;69.80;100499.56;4956692;28;45474;-64
2023/05/09 10:01:53;;;;;;;;;2.67;2.67;;;;;15.82;70.69;100495.38;4956481;28;45541;-64
2023/05/09 10:04:18;;;;;;;;;4.67;3.33;;;;;15.85;70.73;100486.38;4954663;28;47021;-62
2023/05/09 10:07:04;;;;;;;;;2.33;2.00;;;;;15.91;71.14;100494.00;4956188;28;45461;-61
2023/05/09 10:09:31;;;;;;;;;3.33;3.33;;;;;15.93;71.20;100483.28;4956385;28;45498;-64
2023/05/09 10:12:01;;;;;;;;;7.00;7.00;;;;;15.94;70.17;100482.34;4955693;28;45637;-60
2023/05/09 10:14:28;;;;;;;;;2.33;1.67;;;;;15.93;70.79;100478.81;4957423;28;45522;-63
2023/05/09 10:16:55;;;;;;;;;3.00;3.00;;;;;15.87;70.00;100473.88;4957186;28;45388;-61
2023/05/09 10:19:22;;;;;;;;;6.33;6.33;;;;;15.94;70.81;100477.06;4956223;28;45643;-61
2023/05/09 10:21:52;;;;;;;;;0.67;0.67;;;;;15.93;70.59;100470.88;4956604;28;45523;-64
2023/05/09 10:24:26;;;;;;;;;1.67;1.33;;;;;15.94;71.06;100474.41;4956942;28;45503;-63
2023/05/09 10:26:59;;;;;;;;;1.33;1.33;;;;;15.93;70.85;100462.06;4957450;28;45442;-63
2023/05/09 10:29:28;;;;;;;;;2.00;2.00;;;;;15.95;71.03;100461.03;4957222;28;45364;-63
2023/05/09 10:31:58;;;;;;;;;5.33;4.67;;;;;15.97;71.36;100464.44;4956711;28;45426;-63
2023/05/09 10:34:26;;;;;;;;;3.67;3.67;;;;;15.79;71.30;100423.09;4956880;28;45446;-62
2023/05/09 10:36:52;;;;;;;;;2.00;1.00;;;;;15.94;71.35;100446.06;4951886;28;45511;-62
2023/05/09 10:39:18;;;;;;;;;3.33;3.33;;;;;15.89;71.42;100442.84;4955587;28;45527;-64
2023/05/09 10:41:48;;;;;;;;;1.67;1.67;;;;;15.92;70.75;100452.41;4957009;28;46226;-64
2023/05/09 10:44:13;;;;;;;;;0.67;0.67;;;;;15.88;71.66;100449.09;4956542;28;45557;-63
2023/05/09 10:46:39;;;;;;;;;7.33;7.33;;;;;15.88;72.05;100446.44;4956833;28;45900;-62
2023/05/09 10:49:06;;;;;;;;;3.33;3.33;;;;;15.97;72.71;100448.53;4955497;28;45523;-64
2023/05/09 10:51:31;;;;;;;;;2.33;2.00;;;;;15.99;71.60;100444.00;4956396;28;45337;-63
2023/05/09 10:53:57;;;;;;;;;1.67;1.67;;;;;16.03;71.76;100442.00;4956730;28;45354;-62
2023/05/09 10:56:32;;;;;;;;;1.33;1.33;;;;;16.02;71.93;100427.88;4955475;28;45425;-61
2023/05/09 10:59:01;;;;;;;;;1.67;1.67;;;;;16.05;71.23;100443.63;4956407;28;45487;-60
2023/05/09 11:01:33;;;;;;;;;2.00;2.00;;;;;16.08;71.76;100439.94;4955958;28;47052;-62
2023/05/09 11:04:00;;;;;;;;;1.67;1.33;;;;;16.05;71.52;100435.66;4943016;28;45556;-62
2023/05/09 11:06:47;;;;;;;;;11.33;9.67;;;;;16.04;71.62;100433.09;4955590;28;45514;-62
2023/05/09 11:09:33;;;;;;;;;1.67;1.67;;;;;16.08;72.27;100434.63;4944674;28;45470;-65
2023/05/09 11:12:05;;;;;;;;;2.33;2.33;;;;;16.17;71.88;100430.53;4956324;28;46002;-57
2023/05/09 11:14:31;;;;;;;;;12.00;11.00;;;;;16.20;71.16;100431.22;4956383;28;45492;-63
2023/05/09 11:17:01;;;;;;;;;16.67;14.33;;;;;16.22;71.25;100423.16;4956072;28;45457;-62
2023/05/09 11:19:36;;;;;;;;;1.67;1.67;;;;;16.25;71.79;100430.91;4955802;28;45384;-58
2023/05/09 11:22:14;;;;;;;;;1.33;1.33;;;;;16.24;71.90;100411.50;4955045;28;46192;-60
2023/05/09 11:24:52;;;;;;;;;2.00;1.33;;;;;16.33;72.01;100418.03;4955722;28;45446;-62